SOHO CELIAS Proton Monitor
Solar Wind Parameters for Carrington Rotation 2106 (hour averages)


Listed Parameters:

Measurement time (Year, Month, Day of Month, Day of Year, Hour, Minute, Second)
Proton speed [km/sec]
Proton density [protons per cubic centimeter]
Most probable proton thermal speed [km/sec]
Arrival direction [degrees from north-south, with + meaning FROM the south).
(SPEED=-1 means NOT AVAILABLE)

SOHO spacecraft coordinates: based on SOHO PRE orbit files
GSE X, Y, Z [Earth Radii] 1 RE == 6378 km
Heliocentric Range [106 km],
Heliographic Latitude and Longitude [deg].

FORMAT=(1X,I2,1X,I3,1X,I2,1X,I2,1X,I2,F7.1,3F7.2,3X,3F7.1,F7.1,F7.2,F8.2)



                              CELIAS/MTOF/PM DATA                      SOHO ORBIT DATA              
 InSitu_Start__Time       [km/s]  [cm-3] [km/s]  [deg]      [Re]   [Re]   [Re]  [Mkm]  [deg]  [deg]
 YY MON DY DOY:HH:MM:SS   SPEED     Np     Vth    N/S      GSE_X  GSE_Y  GSE_Z  RANGE  HGLAT  HGLONG
 11 JAN 20  20:09:00:00     439    1.4      33    0.0      257.2    2.1  -19.7  145.6   -5.1   360.0
 11 JAN 20  20:10:00:00     437    1.5      33    0.2      257.2    2.0  -19.7  145.6   -5.1   359.1
 11 JAN 20  20:11:00:00     431    1.5      34   -0.3      257.2    1.8  -19.7  145.6   -5.1   358.5
 11 JAN 20  20:12:00:00     446    2.4      31    1.2      257.2    1.6  -19.7  145.6   -5.1   358.0
 11 JAN 20  20:13:00:00     433    1.8      36    0.3      257.2    1.5  -19.7  145.6   -5.1   357.4
 11 JAN 20  20:14:00:00     440    2.4      29    2.4      257.2    1.3  -19.7  145.6   -5.1   356.9
 11 JAN 20  20:15:00:00     448    2.7      26    2.5      257.2    1.2  -19.7  145.6   -5.1   356.3
 11 JAN 20  20:16:00:00     440    1.6      34    0.4      257.2    1.0  -19.7  145.6   -5.1   355.8
 11 JAN 20  20:17:00:00     438    1.6      33    1.0      257.2    0.8  -19.7  145.6   -5.1   355.2
 11 JAN 20  20:18:00:00     430    1.6      36    1.7      257.2    0.7  -19.7  145.6   -5.1   354.7
 11 JAN 20  20:19:00:00     420    1.8      33    1.6      257.2    0.5  -19.7  145.6   -5.1   354.1
 11 JAN 20  20:20:00:00     433    2.0      34    1.6      257.2    0.4  -19.7  145.6   -5.1   353.6
 11 JAN 20  20:21:00:00     434    1.6      34    0.3      257.2    0.2  -19.7  145.6   -5.1   353.0
 11 JAN 20  20:22:00:00     419    1.8      36   -0.8      257.2    0.1  -19.7  145.6   -5.1   352.5
 11 JAN 20  20:23:00:00     422    2.3      35    1.6      257.2   -0.1  -19.7  145.6   -5.1   351.9
 11 JAN 21  21:00:00:00     433    1.9      34   -0.1      257.2   -0.3  -19.7  145.6   -5.1   351.4
 11 JAN 21  21:01:00:00     415    1.9      33    0.8      257.2   -0.4  -19.7  145.6   -5.1   350.8
 11 JAN 21  21:02:00:00     412    3.2      32    2.8      257.2   -0.6  -19.7  145.6   -5.2   350.3
 11 JAN 21  21:03:00:00     391    3.7      28    1.6      257.2   -0.7  -19.7  145.6   -5.2   349.7
 11 JAN 21  21:04:00:00     382    3.8      26    1.2      257.2   -0.9  -19.7  145.6   -5.2   349.2
 11 JAN 21  21:05:00:00     368    4.1      22    2.0      257.2   -1.1  -19.7  145.6   -5.2   348.6
 11 JAN 21  21:06:00:00     371    3.9      23    2.8      257.2   -1.2  -19.7  145.6   -5.2   348.1
 11 JAN 21  21:07:00:00     361    3.6      22    1.8      257.2   -1.4  -19.7  145.6   -5.2   347.5
 11 JAN 21  21:08:00:00     366    3.9      22    1.9      257.2   -1.5  -19.7  145.6   -5.2   347.0
 11 JAN 21  21:09:00:00     368    4.0      23    1.6      257.2   -1.7  -19.7  145.6   -5.2   346.4
 11 JAN 21  21:10:00:00     376    3.9      24    1.9      257.3   -1.8  -19.7  145.6   -5.2   345.9
 11 JAN 21  21:11:00:00     384    2.4      27    0.1      257.3   -2.0  -19.7  145.6   -5.2   345.3
 11 JAN 21  21:12:00:00     379    2.4      25   -0.5      257.3   -2.2  -19.7  145.6   -5.2   344.8
 11 JAN 21  21:13:00:00     379    2.3      25    0.2      257.3   -2.3  -19.7  145.6   -5.2   344.2
 11 JAN 21  21:14:00:00     388    2.2      27    0.2      257.3   -2.5  -19.7  145.6   -5.2   343.7
 11 JAN 21  21:15:00:00     382    3.5      25    0.7      257.3   -2.6  -19.7  145.6   -5.2   343.1
 11 JAN 21  21:16:00:00     384    4.0      27    1.0      257.3   -2.8  -19.7  145.6   -5.2   342.6
 11 JAN 21  21:17:00:00     379    4.8      26   -1.1      257.3   -2.9  -19.7  145.6   -5.2   342.0
 11 JAN 21  21:18:00:00     377    4.7      25   -0.8      257.3   -3.1  -19.7  145.6   -5.2   341.5
 11 JAN 21  21:19:00:00     382    3.7      27    0.1      257.3   -3.3  -19.7  145.6   -5.2   340.9
 11 JAN 21  21:20:00:00     387    4.2      30   -0.4      257.3   -3.4  -19.7  145.6   -5.2   340.4
 11 JAN 21  21:21:00:00     395    4.0      33   -0.6      257.3   -3.6  -19.7  145.6   -5.2   339.8
 11 JAN 21  21:22:00:00     389    3.7      31   -1.0      257.3   -3.7  -19.7  145.6   -5.2   339.3
 11 JAN 21  21:23:00:00     417    2.6      37   -0.1      257.3   -3.9  -19.7  145.6   -5.2   338.7
 11 JAN 22  22:00:00:00     435    2.4      37   -0.1      257.3   -4.1  -19.7  145.6   -5.2   338.2
 11 JAN 22  22:01:00:00     408    2.6      35   -0.7      257.3   -4.2  -19.7  145.6   -5.2   337.6
 11 JAN 22  22:02:00:00     399    3.4      33   -0.2      257.3   -4.4  -19.7  145.6   -5.2   337.1
 11 JAN 22  22:03:00:00     417    2.7      36   -0.7      257.3   -4.5  -19.7  145.6   -5.2   336.5
 11 JAN 22  22:04:00:00     396    3.2      32   -0.4      257.3   -4.7  -19.7  145.6   -5.3   336.0
 11 JAN 22  22:05:00:00     398    3.0      32   -0.3      257.3   -4.8  -19.7  145.6   -5.3   335.4
 11 JAN 22  22:06:00:00     404    2.6      35    0.3      257.3   -5.0  -19.7  145.6   -5.3   334.9
 11 JAN 22  22:07:00:00     407    2.4      35    0.6      257.3   -5.2  -19.7  145.6   -5.3   334.3
 11 JAN 22  22:08:00:00     417    2.1      37    0.3      257.3   -5.3  -19.7  145.6   -5.3   333.8
 11 JAN 22  22:09:00:00     424    1.9      38   -0.3      257.3   -5.5  -19.7  145.6   -5.3   333.2
 11 JAN 22  22:10:00:00     416    2.3      36   -0.3      257.3   -5.6  -19.7  145.6   -5.3   332.7
 11 JAN 22  22:11:00:00     415    2.4      36   -1.0      257.3   -5.8  -19.7  145.6   -5.3   332.1
 11 JAN 22  22:12:00:00     407    2.7      35   -0.2      257.3   -5.9  -19.7  145.6   -5.3   331.6
 11 JAN 22  22:13:00:00     386    3.4      29    0.6      257.3   -6.1  -19.7  145.6   -5.3   331.0
 11 JAN 22  22:14:00:00     377    3.6      26    0.4      257.3   -6.3  -19.7  145.6   -5.3   330.5
 11 JAN 22  22:15:00:00     382    2.8      28    1.0      257.3   -6.4  -19.7  145.6   -5.3   330.0
 11 JAN 22  22:16:00:00     395    1.6      35    0.4      257.3   -6.6  -19.7  145.6   -5.3   329.4
 11 JAN 22  22:17:00:00     378    2.3      28    0.2      257.3   -6.7  -19.7  145.6   -5.3   328.9
 11 JAN 22  22:18:00:00     366    2.6      23    0.9      257.3   -6.9  -19.7  145.6   -5.3   328.3
 11 JAN 22  22:19:00:00     360    2.5      22    0.8      257.3   -7.0  -19.7  145.6   -5.3   327.8
 11 JAN 22  22:20:00:00     354    2.7      21    0.7      257.3   -7.2  -19.7  145.6   -5.3   327.2
 11 JAN 22  22:21:00:00     351    3.0      20    1.0      257.3   -7.3  -19.7  145.6   -5.3   326.7
 11 JAN 22  22:22:00:00     352    2.8      20    1.2      257.3   -7.5  -19.7  145.6   -5.3   326.1
 11 JAN 22  22:23:00:00     354    2.6      21    1.0      257.3   -7.7  -19.7  145.6   -5.3   325.6
 11 JAN 23  23:00:00:00     355    2.6      21    0.7      257.3   -7.8  -19.7  145.6   -5.3   325.0
 11 JAN 23  23:01:00:00     355    2.5      21    0.7      257.3   -8.0  -19.7  145.6   -5.3   324.5
 11 JAN 23  23:02:00:00     356    2.9      21    0.7      257.3   -8.1  -19.7  145.6   -5.3   323.9
 11 JAN 23  23:03:00:00     354    2.7      21    0.6      257.3   -8.3  -19.7  145.6   -5.3   323.4
 11 JAN 23  23:04:00:00     354    3.0      21    0.4      257.3   -8.4  -19.7  145.6   -5.3   322.8
 11 JAN 23  23:05:00:00     353    3.1      21    0.2      257.3   -8.6  -19.7  145.6   -5.3   322.3
 11 JAN 23  23:06:00:00     350    3.7      20    0.5      257.3   -8.8  -19.7  145.6   -5.3   321.7
 11 JAN 23  23:07:00:00     350    3.8      20    0.5      257.3   -8.9  -19.7  145.6   -5.4   321.2
 11 JAN 23  23:08:00:00     349    3.7      18    0.6      257.3   -9.1  -19.7  145.6   -5.4   320.6
 11 JAN 23  23:09:00:00     349    3.1      18    0.1      257.3   -9.2  -19.7  145.6   -5.4   320.1
 11 JAN 23  23:10:00:00     350    2.4      19   -0.1      257.3   -9.4  -19.7  145.6   -5.4   319.5
 11 JAN 23  23:11:00:00     349    2.2      18    0.1      257.3   -9.5  -19.7  145.6   -5.4   319.0
 11 JAN 23  23:12:00:00     350    1.9      19    0.1      257.3   -9.7  -19.7  145.6   -5.4   318.4
 11 JAN 23  23:13:00:00     354    1.4      22   -0.3      257.3   -9.8  -19.7  145.6   -5.4   317.9
 11 JAN 23  23:14:00:00     353    1.5      22   -0.3      257.3  -10.0  -19.7  145.6   -5.4   317.3
 11 JAN 23  23:15:00:00     354    1.5      22   -0.1      257.3  -10.2  -19.7  145.6   -5.4   316.8
 11 JAN 23  23:16:00:00     352    1.3      24    0.1      257.3  -10.3  -19.7  145.6   -5.4   316.2
 11 JAN 23  23:17:00:00     346    1.5      23    0.1      257.3  -10.5  -19.7  145.6   -5.4   315.7
 11 JAN 23  23:18:00:00     347    2.7      19    0.6      257.3  -10.6  -19.7  145.6   -5.4   315.1
 11 JAN 23  23:19:00:00     347    3.0      15    0.2      257.3  -10.8  -19.6  145.6   -5.4   314.6
 11 JAN 23  23:20:00:00     349    2.8      21   -0.4      257.3  -10.9  -19.6  145.6   -5.4   314.0
 11 JAN 23  23:21:00:00     349    1.9      25   -1.1      257.3  -11.1  -19.6  145.6   -5.4   313.5
 11 JAN 23  23:22:00:00     346    1.9      26   -0.9      257.3  -11.2  -19.6  145.6   -5.4   312.9
 11 JAN 23  23:23:00:00     347    2.7      26   -2.0      257.3  -11.4  -19.6  145.6   -5.4   312.4
 11 JAN 24  24:00:00:00     353    4.2      22   -1.7      257.3  -11.6  -19.6  145.6   -5.4   311.8
 11 JAN 24  24:01:00:00     353    5.0      21   -1.9      257.3  -11.7  -19.6  145.6   -5.4   311.3
 11 JAN 24  24:02:00:00     352    4.7      21   -1.1      257.3  -11.9  -19.6  145.6   -5.4   310.7
 11 JAN 24  24:03:00:00     353    4.0      23   -1.2      257.3  -12.0  -19.6  145.6   -5.4   310.2
 11 JAN 24  24:04:00:00     352    5.3      22   -2.4      257.3  -12.2  -19.6  145.6   -5.4   309.6
 11 JAN 24  24:05:00:00     356    4.8      22   -2.1      257.3  -12.3  -19.6  145.6   -5.4   309.1
 11 JAN 24  24:06:00:00     361    4.9      22   -0.9      257.3  -12.5  -19.6  145.6   -5.4   308.5
 11 JAN 24  24:07:00:00     386    4.9      27   -0.6      257.3  -12.6  -19.6  145.6   -5.4   308.0
 11 JAN 24  24:08:00:00     396    4.3      31   -0.2      257.3  -12.8  -19.6  145.6   -5.4   307.4
 11 JAN 24  24:09:00:00     436    1.9      40   -1.2      257.3  -12.9  -19.6  145.6   -5.4   306.9
 11 JAN 24  24:10:00:00     438    1.2      40   -0.5      257.3  -13.1  -19.6  145.6   -5.5   306.3
 11 JAN 24  24:11:00:00     406    2.3      34    0.1      257.3  -13.2  -19.6  145.6   -5.5   305.8
 11 JAN 24  24:12:00:00     365    5.5      22   -0.5      257.3  -13.4  -19.6  145.6   -5.5   305.2
 11 JAN 24  24:13:00:00     346    7.2      13   -0.9      257.3  -13.6  -19.6  145.6   -5.5   304.7
 11 JAN 24  24:14:00:00     347    7.2      13   -1.5      257.3  -13.7  -19.6  145.6   -5.5   304.1
 11 JAN 24  24:15:00:00     346    6.0      11   -1.3      257.3  -13.9  -19.6  145.6   -5.5   303.6
 11 JAN 24  24:16:00:00     345    4.9      10    0.0      257.3  -14.0  -19.6  145.6   -5.5   303.0
 11 JAN 24  24:17:00:00     345    4.8       9   -0.2      257.3  -14.2  -19.6  145.6   -5.5   302.5
 11 JAN 24  24:18:00:00     345    5.6       7    1.3      257.3  -14.3  -19.6  145.6   -5.5   301.9
 11 JAN 24  24:19:00:00     345    4.7       8    0.1      257.3  -14.5  -19.6  145.6   -5.5   301.4
 11 JAN 24  24:20:00:00     345    3.8       9    0.0      257.3  -14.6  -19.6  145.6   -5.5   300.8
 11 JAN 24  24:21:00:00     346    3.9      11   -0.3      257.3  -14.8  -19.6  145.6   -5.5   300.3
 11 JAN 24  24:22:00:00     346    3.9      12   -0.2      257.3  -14.9  -19.6  145.6   -5.5   299.7
 11 JAN 24  24:23:00:00     345    5.0       9    0.2      257.3  -15.1  -19.6  145.6   -5.5   299.2
 11 JAN 25  25:00:00:00     346    4.5      12   -0.2      257.3  -15.2  -19.6  145.6   -5.5   298.6
 11 JAN 25  25:01:00:00     345    4.7       9    0.8      257.3  -15.4  -19.6  145.6   -5.5   298.1
 11 JAN 25  25:02:00:00     345    5.4       8    0.6      257.3  -15.5  -19.6  145.6   -5.5   297.5
 11 JAN 25  25:03:00:00     345    5.4       9    1.4      257.3  -15.7  -19.6  145.6   -5.5   297.0
 11 JAN 25  25:04:00:00     345    4.6      10    1.2      257.3  -15.8  -19.6  145.6   -5.5   296.4
 11 JAN 25  25:05:00:00     348    4.0      16    1.9      257.3  -16.0  -19.6  145.6   -5.5   295.9
 11 JAN 25  25:06:00:00     350    2.4      20    2.2      257.2  -16.2  -19.6  145.6   -5.5   295.3
 11 JAN 25  25:07:00:00     349    2.3      24    2.9      257.2  -16.3  -19.6  145.6   -5.5   294.8
 11 JAN 25  25:08:00:00     342    1.8      21    3.2      257.2  -16.5  -19.6  145.6   -5.5   294.2
 11 JAN 25  25:09:00:00     349    1.3      19    2.7      257.2  -16.6  -19.6  145.6   -5.5   293.7
 11 JAN 25  25:10:00:00     336    1.3      23    1.2      257.2  -16.8  -19.6  145.6   -5.5   293.1
 11 JAN 25  25:11:00:00     312    3.4      20    1.7      257.2  -16.9  -19.6  145.6   -5.5   292.6
 11 JAN 25  25:12:00:00     310    2.9      20   -0.1      257.2  -17.1  -19.5  145.6   -5.5   292.0
 11 JAN 25  25:13:00:00     316    4.4      21   -2.3      257.2  -17.2  -19.5  145.6   -5.5   291.5
 11 JAN 25  25:14:00:00     319    5.3      22   -2.1      257.2  -17.4  -19.5  145.6   -5.6   290.9
 11 JAN 25  25:15:00:00     314    7.2      21   -2.6      257.2  -17.5  -19.5  145.6   -5.6   290.4
 11 JAN 25  25:16:00:00     310    7.7      20   -3.5      257.2  -17.7  -19.5  145.6   -5.6   289.8
 11 JAN 25  25:17:00:00     306    7.9      19   -3.8      257.2  -17.8  -19.5  145.6   -5.6   289.3
 11 JAN 25  25:18:00:00     304    7.5      19   -3.0      257.2  -18.0  -19.5  145.6   -5.6   288.7
 11 JAN 25  25:19:00:00     306    8.4      19   -3.9      257.2  -18.1  -19.5  145.6   -5.6   288.2
 11 JAN 25  25:20:00:00     308    9.8      19   -4.7      257.2  -18.3  -19.5  145.6   -5.6   287.6
 11 JAN 25  25:21:00:00     307   11.0      19   -5.5      257.2  -18.4  -19.5  145.6   -5.6   287.1
 11 JAN 25  25:22:00:00     304    9.4      19   -4.2      257.2  -18.6  -19.5  145.6   -5.6   286.5
 11 JAN 25  25:23:00:00     305    9.0      19   -3.3      257.2  -18.7  -19.5  145.6   -5.6   286.0
 11 JAN 26  26:00:00:00     309    8.6      20   -3.3      257.2  -18.9  -19.5  145.6   -5.6   285.4
 11 JAN 26  26:01:00:00     309    9.5      19   -4.2      257.2  -19.0  -19.5  145.6   -5.6   284.9
 11 JAN 26  26:02:00:00     300   10.1      19   -4.4      257.2  -19.2  -19.5  145.6   -5.6   284.3
 11 JAN 26  26:03:00:00     296    9.9      19   -4.0      257.2  -19.3  -19.5  145.6   -5.6   283.8
 11 JAN 26  26:04:00:00     294    7.9      19   -3.2      257.2  -19.5  -19.5  145.6   -5.6   283.2
 11 JAN 26  26:05:00:00     293    8.3      19   -3.0      257.2  -19.6  -19.5  145.6   -5.6   282.7
 11 JAN 26  26:06:00:00     292    7.6      19   -2.9      257.1  -19.8  -19.5  145.6   -5.6   282.1
 11 JAN 26  26:07:00:00     290    6.6      18   -2.3      257.1  -19.9  -19.5  145.6   -5.6   281.6
 11 JAN 26  26:08:00:00     288    5.6      18   -0.8      257.1  -20.1  -19.5  145.6   -5.6   281.0
 11 JAN 26  26:09:00:00     289    5.1      18   -0.9      257.1  -20.2  -19.5  145.6   -5.6   280.5
 11 JAN 26  26:10:00:00     287    4.8      17   -1.1      257.1  -20.4  -19.5  145.7   -5.6   279.9
 11 JAN 26  26:11:00:00     286    4.8      17   -0.7      257.1  -20.5  -19.5  145.7   -5.6   279.4
 11 JAN 26  26:12:00:00     287    5.0      17   -1.3      257.1  -20.7  -19.5  145.7   -5.6   278.8
 11 JAN 26  26:13:00:00     287    5.2      17   -0.9      257.1  -20.8  -19.5  145.7   -5.6   278.3
 11 JAN 26  26:14:00:00     286    5.6      17   -0.7      257.1  -21.0  -19.4  145.7   -5.6   277.7
 11 JAN 26  26:15:00:00     287    5.9      18   -1.1      257.1  -21.1  -19.4  145.7   -5.6   277.2
 11 JAN 26  26:16:00:00      -1   -1.0      -1   99.0      257.1  -21.3  -19.4  145.7   -5.6   276.6
 11 JAN 26  26:17:00:00      -1   -1.0      -1   99.0      257.1  -21.4  -19.4  145.7   -5.6   276.1
 11 JAN 26  26:18:00:00      -1   -1.0      -1   99.0      257.1  -21.6  -19.4  145.7   -5.6   275.5
 11 JAN 26  26:19:00:00     295   11.7      19   -4.0      257.1  -21.7  -19.4  145.7   -5.7   275.0
 11 JAN 26  26:20:00:00     291   10.2      18   -3.0      257.1  -21.9  -19.4  145.7   -5.7   274.4
 11 JAN 26  26:21:00:00     285   10.6      17   -2.7      257.1  -22.0  -19.4  145.7   -5.7   273.9
 11 JAN 26  26:22:00:00     285   12.1      17   -3.9      257.1  -22.2  -19.4  145.7   -5.7   273.3
 11 JAN 26  26:23:00:00      -1   -1.0      -1   99.0      257.0  -22.3  -19.4  145.7   -5.7   272.8
 11 JAN 27  27:00:00:00      -1   -1.0      -1   99.0      257.0  -22.5  -19.4  145.7   -5.7   272.3
 11 JAN 27  27:01:00:00      -1   -1.0      -1   99.0      257.0  -22.6  -19.4  145.7   -5.7   271.7
 11 JAN 27  27:02:00:00      -1   -1.0      -1   99.0      257.0  -22.7  -19.4  145.7   -5.7   271.2
 11 JAN 27  27:03:00:00      -1   -1.0      -1   99.0      257.0  -22.9  -19.4  145.7   -5.7   270.6
 11 JAN 27  27:04:00:00      -1   -1.0      -1   99.0      257.0  -23.0  -19.4  145.7   -5.7   270.1
 11 JAN 27  27:05:00:00      -1   -1.0      -1   99.0      257.0  -23.2  -19.4  145.7   -5.7   269.5
 11 JAN 27  27:06:00:00     282   17.7      17   -5.9      257.0  -23.3  -19.4  145.7   -5.7   269.0
 11 JAN 27  27:07:00:00     289    4.5      17   -2.5      257.0  -23.5  -19.4  145.7   -5.7   268.4
 11 JAN 27  27:08:00:00     289    4.4      18   -2.1      257.0  -23.6  -19.4  145.7   -5.7   267.9
 11 JAN 27  27:09:00:00     285    4.4      17   -1.3      257.0  -23.8  -19.4  145.7   -5.7   267.3
 11 JAN 27  27:10:00:00     292    4.0      18   -0.8      257.0  -23.9  -19.4  145.7   -5.7   266.8
 11 JAN 27  27:11:00:00     306    2.2      20    0.6      257.0  -24.1  -19.3  145.7   -5.7   266.2
 11 JAN 27  27:12:00:00     305    2.8      19    1.2      257.0  -24.2  -19.3  145.7   -5.7   265.7
 11 JAN 27  27:13:00:00     304    3.3      19    4.3      256.9  -24.4  -19.3  145.7   -5.7   265.1
 11 JAN 27  27:14:00:00     311    2.1      21    1.9      256.9  -24.5  -19.3  145.7   -5.7   264.6
 11 JAN 27  27:15:00:00     299    3.8      19    4.0      256.9  -24.7  -19.3  145.7   -5.7   264.0
 11 JAN 27  27:16:00:00     296    5.0      19    4.9      256.9  -24.8  -19.3  145.7   -5.7   263.5
 11 JAN 27  27:17:00:00     294    6.3      19    6.3      256.9  -24.9  -19.3  145.7   -5.7   262.9
 11 JAN 27  27:18:00:00     289    5.5      18    5.9      256.9  -25.1  -19.3  145.7   -5.7   262.4
 11 JAN 27  27:19:00:00     309    6.3      19    5.8      256.9  -25.2  -19.3  145.7   -5.7   261.8
 11 JAN 27  27:20:00:00     308    7.8      19    6.1      256.9  -25.4  -19.3  145.7   -5.7   261.3
 11 JAN 27  27:21:00:00     296    8.7      18    6.1      256.9  -25.5  -19.3  145.7   -5.7   260.7
 11 JAN 27  27:22:00:00     290    6.5      18    1.6      256.9  -25.7  -19.3  145.7   -5.7   260.2
 11 JAN 27  27:23:00:00     294    6.4      19   -0.4      256.9  -25.8  -19.3  145.7   -5.7   259.6
 11 JAN 28  28:00:00:00     290    6.8      18   -2.3      256.8  -26.0  -19.3  145.7   -5.7   259.1
 11 JAN 28  28:01:00:00     304    7.5      19    3.1      256.8  -26.1  -19.3  145.7   -5.8   258.5
 11 JAN 28  28:02:00:00     313    5.2      20    2.9      256.8  -26.3  -19.3  145.7   -5.8   258.0
 11 JAN 28  28:03:00:00     307    4.6      19    3.1      256.8  -26.4  -19.3  145.7   -5.8   257.4
 11 JAN 28  28:04:00:00     286    4.6      17    1.7      256.8  -26.5  -19.3  145.7   -5.8   256.9
 11 JAN 28  28:05:00:00     280    4.2      16    0.9      256.8  -26.7  -19.2  145.7   -5.8   256.3
 11 JAN 28  28:06:00:00     278    4.9      16   -0.1      256.8  -26.8  -19.2  145.7   -5.8   255.8
 11 JAN 28  28:07:00:00     281    4.9      16   -0.5      256.8  -27.0  -19.2  145.7   -5.8   255.2
 11 JAN 28  28:08:00:00     288    3.7      17   -1.2      256.8  -27.1  -19.2  145.7   -5.8   254.7
 11 JAN 28  28:09:00:00     293    2.3      19   -0.1      256.8  -27.3  -19.2  145.7   -5.8   254.1
 11 JAN 28  28:10:00:00     296    2.1      19   -0.3      256.7  -27.4  -19.2  145.7   -5.8   253.6
 11 JAN 28  28:11:00:00     299    2.8      19    1.1      256.7  -27.6  -19.2  145.7   -5.8   253.0
 11 JAN 28  28:12:00:00     292    2.5      19   -0.8      256.7  -27.7  -19.2  145.7   -5.8   252.5
 11 JAN 28  28:13:00:00     293    2.5      19   -0.7      256.7  -27.8  -19.2  145.7   -5.8   251.9
 11 JAN 28  28:14:00:00     294    3.3      19   -2.3      256.7  -28.0  -19.2  145.7   -5.8   251.4
 11 JAN 28  28:15:00:00     301    5.2      19   -2.1      256.7  -28.1  -19.2  145.7   -5.8   250.8
 11 JAN 28  28:16:00:00     300   10.1      19    0.4      256.7  -28.3  -19.2  145.7   -5.8   250.3
 11 JAN 28  28:17:00:00     301    8.7      19    1.0      256.7  -28.4  -19.2  145.7   -5.8   249.7
 11 JAN 28  28:18:00:00     312    6.9      20    1.2      256.7  -28.6  -19.2  145.7   -5.8   249.2
 11 JAN 28  28:19:00:00     311    7.0      20    1.4      256.6  -28.7  -19.2  145.7   -5.8   248.6
 11 JAN 28  28:20:00:00     305   10.4      20    2.8      256.6  -28.8  -19.2  145.7   -5.8   248.1
 11 JAN 28  28:21:00:00     300   11.9      19    2.0      256.6  -29.0  -19.2  145.7   -5.8   247.5
 11 JAN 28  28:22:00:00     299    7.1      19    1.9      256.6  -29.1  -19.1  145.7   -5.8   247.0
 11 JAN 28  28:23:00:00     300   10.1      19    3.6      256.6  -29.3  -19.1  145.7   -5.8   246.4
 11 JAN 29  29:00:00:00     300    9.4      19    3.2      256.6  -29.4  -19.1  145.7   -5.8   245.9
 11 JAN 29  29:01:00:00     304    6.6      19    2.2      256.6  -29.6  -19.1  145.7   -5.8   245.3
 11 JAN 29  29:02:00:00     302    3.0      19    1.5      256.6  -29.7  -19.1  145.7   -5.8   244.8
 11 JAN 29  29:03:00:00     297    4.2      19    2.5      256.5  -29.8  -19.1  145.7   -5.8   244.2
 11 JAN 29  29:04:00:00     291    4.6      19    1.4      256.5  -30.0  -19.1  145.7   -5.8   243.7
 11 JAN 29  29:05:00:00     300    4.9      19    1.9      256.5  -30.1  -19.1  145.7   -5.8   243.1
 11 JAN 29  29:06:00:00     305    3.9      19    1.8      256.5  -30.3  -19.1  145.7   -5.8   242.6
 11 JAN 29  29:07:00:00     311    4.8      20    3.1      256.5  -30.4  -19.1  145.7   -5.9   242.0
 11 JAN 29  29:08:00:00     308    5.1      20    2.0      256.5  -30.6  -19.1  145.7   -5.9   241.5
 11 JAN 29  29:09:00:00     307    4.5      20   -0.4      256.5  -30.7  -19.1  145.7   -5.9   240.9
 11 JAN 29  29:10:00:00     305    5.2      19   -0.4      256.5  -30.8  -19.1  145.7   -5.9   240.4
 11 JAN 29  29:11:00:00     315    5.2      22   -0.4      256.4  -31.0  -19.1  145.7   -5.9   239.8
 11 JAN 29  29:12:00:00     323    3.8      24    0.0      256.4  -31.1  -19.1  145.7   -5.9   239.3
 11 JAN 29  29:13:00:00     321    2.4      23   -0.8      256.4  -31.3  -19.0  145.7   -5.9   238.7
 11 JAN 29  29:14:00:00     310    2.6      20   -1.3      256.4  -31.4  -19.0  145.7   -5.9   238.2
 11 JAN 29  29:15:00:00     312    1.6      21    0.3      256.4  -31.5  -19.0  145.7   -5.9   237.6
 11 JAN 29  29:16:00:00     308    2.6      20    1.8      256.4  -31.7  -19.0  145.7   -5.9   237.1
 11 JAN 29  29:17:00:00     306    2.8      20    1.5      256.4  -31.8  -19.0  145.7   -5.9   236.5
 11 JAN 29  29:18:00:00     301    3.2      19    0.2      256.3  -32.0  -19.0  145.7   -5.9   236.0
 11 JAN 29  29:19:00:00     299    2.2      19   -0.9      256.3  -32.1  -19.0  145.7   -5.9   235.4
 11 JAN 29  29:20:00:00     295    3.3      19   -2.3      256.3  -32.2  -19.0  145.7   -5.9   234.9
 11 JAN 29  29:21:00:00     300    1.9      19   -1.6      256.3  -32.4  -19.0  145.7   -5.9   234.3
 11 JAN 29  29:22:00:00     297    2.9      19    0.0      256.3  -32.5  -19.0  145.7   -5.9   233.8
 11 JAN 29  29:23:00:00     296    2.3      19   -0.3      256.3  -32.7  -19.0  145.7   -5.9   233.2
 11 JAN 30  30:00:00:00     298    1.5      19   -0.2      256.2  -32.8  -19.0  145.7   -5.9   232.7
 11 JAN 30  30:01:00:00     294    1.7      18   -1.1      256.2  -32.9  -19.0  145.7   -5.9   232.1
 11 JAN 30  30:02:00:00     289    2.3      18   -1.1      256.2  -33.1  -19.0  145.7   -5.9   231.6
 11 JAN 30  30:03:00:00     291    2.6      18    1.0      256.2  -33.2  -18.9  145.7   -5.9   231.0
 11 JAN 30  30:04:00:00     290    2.4      18    1.1      256.2  -33.4  -18.9  145.7   -5.9   230.5
 11 JAN 30  30:05:00:00     303    0.8      19   -1.1      256.2  -33.5  -18.9  145.7   -5.9   229.9
 11 JAN 30  30:06:00:00     302    0.6      19   -2.7      256.2  -33.6  -18.9  145.7   -5.9   229.4
 11 JAN 30  30:07:00:00     315    0.5      21   -1.8      256.1  -33.8  -18.9  145.7   -5.9   228.8
 11 JAN 30  30:08:00:00     308    0.8      20    1.2      256.1  -33.9  -18.9  145.7   -5.9   228.3
 11 JAN 30  30:09:00:00     308    0.8      20    0.7      256.1  -34.1  -18.9  145.7   -5.9   227.7
 11 JAN 30  30:10:00:00     310    0.7      20    1.2      256.1  -34.2  -18.9  145.7   -5.9   227.2
 11 JAN 30  30:11:00:00     307    0.9      20    1.0      256.1  -34.3  -18.9  145.7   -5.9   226.6
 11 JAN 30  30:12:00:00     306    1.0      19    1.6      256.1  -34.5  -18.9  145.7   -5.9   226.1
 11 JAN 30  30:13:00:00     304    0.9      19   -0.5      256.0  -34.6  -18.9  145.7   -5.9   225.5
 11 JAN 30  30:14:00:00     311    0.5      21   -2.0      256.0  -34.8  -18.9  145.7   -5.9   225.0
 11 JAN 30  30:15:00:00     315    0.4      21   -0.9      256.0  -34.9  -18.9  145.7   -6.0   224.4
 11 JAN 30  30:16:00:00     316    0.4      22   -0.8      256.0  -35.0  -18.8  145.7   -6.0   223.9
 11 JAN 30  30:17:00:00     315    0.5      21   -0.1      256.0  -35.2  -18.8  145.7   -6.0   223.3
 11 JAN 30  30:18:00:00     317    0.5      21    0.5      255.9  -35.3  -18.8  145.7   -6.0   222.8
 11 JAN 30  30:19:00:00     324    0.4      23    0.2      255.9  -35.4  -18.8  145.7   -6.0   222.2
 11 JAN 30  30:20:00:00     325    0.4      23    0.4      255.9  -35.6  -18.8  145.7   -6.0   221.7
 11 JAN 30  30:21:00:00     324    0.3      24    0.5      255.9  -35.7  -18.8  145.7   -6.0   221.1
 11 JAN 30  30:22:00:00     311    1.6      21   -4.8      255.9  -35.9  -18.8  145.7   -6.0   220.6
 11 JAN 30  30:23:00:00     307    2.0      20   -6.2      255.9  -36.0  -18.8  145.7   -6.0   220.0
 11 JAN 31  31:00:00:00     316    1.8      22   -4.8      255.8  -36.1  -18.8  145.7   -6.0   219.5
 11 JAN 31  31:01:00:00     309    1.7      20   -4.0      255.8  -36.3  -18.8  145.7   -6.0   219.0
 11 JAN 31  31:02:00:00     305    1.6      19   -2.5      255.8  -36.4  -18.8  145.7   -6.0   218.4
 11 JAN 31  31:03:00:00     310    3.0      21   -3.6      255.8  -36.5  -18.8  145.7   -6.0   217.9
 11 JAN 31  31:04:00:00     315    2.7      21   -4.2      255.8  -36.7  -18.7  145.8   -6.0   217.3
 11 JAN 31  31:05:00:00     308    2.4      20   -3.6      255.7  -36.8  -18.7  145.8   -6.0   216.8
 11 JAN 31  31:06:00:00     307    2.1      20   -4.6      255.7  -37.0  -18.7  145.8   -6.0   216.2
 11 JAN 31  31:07:00:00     307    1.8      19   -5.1      255.7  -37.1  -18.7  145.8   -6.0   215.7
 11 JAN 31  31:08:00:00     301    2.2      19   -6.2      255.7  -37.2  -18.7  145.8   -6.0   215.1
 11 JAN 31  31:09:00:00     289    4.5      18   -8.1      255.7  -37.4  -18.7  145.8   -6.0   214.6
 11 JAN 31  31:10:00:00     282    3.5      17   -7.7      255.6  -37.5  -18.7  145.8   -6.0   214.0
 11 JAN 31  31:11:00:00     287    2.2      17   -7.1      255.6  -37.6  -18.7  145.8   -6.0   213.5
 11 JAN 31  31:12:00:00     279    3.7      16   -7.8      255.6  -37.8  -18.7  145.8   -6.0   212.9
 11 JAN 31  31:13:00:00     293    1.7      18   -4.8      255.6  -37.9  -18.7  145.8   -6.0   212.4
 11 JAN 31  31:14:00:00     295    3.1      18   -3.8      255.6  -38.0  -18.7  145.8   -6.0   211.8
 11 JAN 31  31:15:00:00     300   20.5      19   -2.2      255.5  -38.2  -18.7  145.8   -6.0   211.3
 11 JAN 31  31:16:00:00     290   35.9      18   -5.4      255.5  -38.3  -18.6  145.8   -6.0   210.7
 11 JAN 31  31:17:00:00     291   38.4      18   -5.2      255.5  -38.4  -18.6  145.8   -6.0   210.2
 11 JAN 31  31:18:00:00     279   18.1      16   -6.5      255.5  -38.6  -18.6  145.8   -6.0   209.6
 11 JAN 31  31:19:00:00     282   11.3      17   -0.9      255.5  -38.7  -18.6  145.8   -6.0   209.1
 11 JAN 31  31:20:00:00     285   22.7      17   -3.0      255.4  -38.9  -18.6  145.8   -6.0   208.5
 11 JAN 31  31:21:00:00     296   22.1      18   -0.8      255.4  -39.0  -18.6  145.8   -6.0   208.0
 11 JAN 31  31:22:00:00     293   14.1      18    1.0      255.4  -39.1  -18.6  145.8   -6.0   207.4
 11 JAN 31  31:23:00:00     287   13.1      18    1.5      255.4  -39.3  -18.6  145.8   -6.1   206.9
 11 FEB  1  32:00:00:00     296   11.5      19    1.7      255.4  -39.4  -18.6  145.8   -6.1   206.3
 11 FEB  1  32:01:00:00     334    8.1      26    3.8      255.3  -39.5  -18.6  145.8   -6.1   205.8
 11 FEB  1  32:02:00:00     358   11.9      32    2.7      255.3  -39.7  -18.6  145.8   -6.1   205.2
 11 FEB  1  32:03:00:00     356   18.2      31    4.7      255.3  -39.8  -18.6  145.8   -6.1   204.7
 11 FEB  1  32:04:00:00     341   13.8      24    4.2      255.3  -39.9  -18.5  145.8   -6.1   204.1
 11 FEB  1  32:05:00:00     346   11.0      23    1.7      255.2  -40.1  -18.5  145.8   -6.1   203.6
 11 FEB  1  32:06:00:00     347    8.3      21   -2.0      255.2  -40.2  -18.5  145.8   -6.1   203.0
 11 FEB  1  32:07:00:00     346    9.6      19   -2.9      255.2  -40.3  -18.5  145.8   -6.1   202.5
 11 FEB  1  32:08:00:00     348    7.8      22   -3.2      255.2  -40.5  -18.5  145.8   -6.1   201.9
 11 FEB  1  32:09:00:00     402    8.3      35   -7.6      255.1  -40.6  -18.5  145.8   -6.1   201.4
 11 FEB  1  32:10:00:00     388    9.6      31   -6.9      255.1  -40.7  -18.5  145.8   -6.1   200.8
 11 FEB  1  32:11:00:00     375    7.1      29   -2.7      255.1  -40.9  -18.5  145.8   -6.1   200.3
 11 FEB  1  32:12:00:00     382    6.4      29   -1.8      255.1  -41.0  -18.5  145.8   -6.1   199.7
 11 FEB  1  32:13:00:00     410    5.8      38   -1.6      255.1  -41.1  -18.5  145.8   -6.1   199.2
 11 FEB  1  32:14:00:00     432    6.1      45   -1.8      255.0  -41.3  -18.5  145.8   -6.1   198.6
 11 FEB  1  32:15:00:00     450    9.4      53   -3.4      255.0  -41.4  -18.4  145.8   -6.1   198.1
 11 FEB  1  32:16:00:00     488    9.6      59   -5.7      255.0  -41.5  -18.4  145.8   -6.1   197.5
 11 FEB  1  32:17:00:00     459    8.4      48   -4.4      255.0  -41.7  -18.4  145.8   -6.1   197.0
 11 FEB  1  32:18:00:00     469    7.5      57   -3.4      254.9  -41.8  -18.4  145.8   -6.1   196.4
 11 FEB  1  32:19:00:00     473    6.7      53   -4.2      254.9  -41.9  -18.4  145.8   -6.1   195.9
 11 FEB  1  32:20:00:00     484    5.4      57   -2.5      254.9  -42.1  -18.4  145.8   -6.1   195.3
 11 FEB  1  32:21:00:00     466    6.5      47   -4.6      254.9  -42.2  -18.4  145.8   -6.1   194.8
 11 FEB  1  32:22:00:00     489    5.8      51   -4.5      254.8  -42.3  -18.4  145.8   -6.1   194.2
 11 FEB  1  32:23:00:00     477    5.2      44   -4.0      254.8  -42.5  -18.4  145.8   -6.1   193.7
 11 FEB  2  33:00:00:00     475    5.7      43   -4.5      254.8  -42.6  -18.4  145.8   -6.1   193.1
 11 FEB  2  33:01:00:00     456    5.9      43   -4.2      254.8  -42.7  -18.3  145.8   -6.1   192.6
 11 FEB  2  33:02:00:00     445    7.5      42   -5.3      254.7  -42.9  -18.3  145.8   -6.1   192.0
 11 FEB  2  33:03:00:00     442    8.7      39   -6.3      254.7  -43.0  -18.3  145.8   -6.1   191.5
 11 FEB  2  33:04:00:00     438    8.8      37   -6.6      254.7  -43.1  -18.3  145.8   -6.1   190.9
 11 FEB  2  33:05:00:00     431    7.4      37   -6.6      254.7  -43.3  -18.3  145.8   -6.1   190.4
 11 FEB  2  33:06:00:00     422    6.7      38   -6.5      254.6  -43.4  -18.3  145.8   -6.1   189.8
 11 FEB  2  33:07:00:00      -1   -1.0      -1   99.0      254.6  -43.5  -18.3  145.8   -6.1   189.3
 11 FEB  2  33:08:00:00      -1   -1.0      -1   99.0      254.6  -43.6  -18.3  145.8   -6.1   188.7
 11 FEB  2  33:09:00:00      -1   -1.0      -1   99.0      254.6  -43.8  -18.3  145.8   -6.2   188.2
 11 FEB  2  33:10:00:00     406    7.8      36   -6.2      254.5  -43.9  -18.3  145.8   -6.2   187.6
 11 FEB  2  33:11:00:00     416    6.7      37   -6.0      254.5  -44.0  -18.2  145.8   -6.2   187.1
 11 FEB  2  33:12:00:00     401    4.9      32   -4.4      254.5  -44.2  -18.2  145.8   -6.2   186.5
 11 FEB  2  33:13:00:00     387    4.1      29   -2.9      254.4  -44.3  -18.2  145.8   -6.2   186.0
 11 FEB  2  33:14:00:00     371    3.0      26   -1.7      254.4  -44.4  -18.2  145.8   -6.2   185.4
 11 FEB  2  33:15:00:00     393    3.4      29   -2.1      254.4  -44.6  -18.2  145.8   -6.2   184.9
 11 FEB  2  33:16:00:00     400    2.9      31   -1.7      254.4  -44.7  -18.2  145.8   -6.2   184.3
 11 FEB  2  33:17:00:00     374    2.3      25   -1.6      254.3  -44.8  -18.2  145.8   -6.2   183.8
 11 FEB  2  33:18:00:00     368    2.7      23   -1.2      254.3  -45.0  -18.2  145.8   -6.2   183.2
 11 FEB  2  33:19:00:00     364    2.9      23   -1.4      254.3  -45.1  -18.2  145.8   -6.2   182.7
 11 FEB  2  33:20:00:00     366    2.7      23   -0.9      254.3  -45.2  -18.2  145.8   -6.2   182.1
 11 FEB  2  33:21:00:00     356    2.7      21   -0.8      254.2  -45.3  -18.1  145.8   -6.2   181.6
 11 FEB  2  33:22:00:00     356    2.3      21   -0.6      254.2  -45.5  -18.1  145.8   -6.2   181.0
 11 FEB  2  33:23:00:00     359    2.1      22   -0.4      254.2  -45.6  -18.1  145.8   -6.2   180.5
 11 FEB  3  34:00:00:00     340    1.4      24   -0.1      254.1  -45.7  -18.1  145.8   -6.2   179.9
 11 FEB  3  34:01:00:00     342    1.0      24    0.1      254.1  -45.9  -18.1  145.8   -6.2   179.4
 11 FEB  3  34:02:00:00     341    0.9      24   -0.1      254.1  -46.0  -18.1  145.8   -6.2   178.8
 11 FEB  3  34:03:00:00     345    1.0      22   -0.7      254.1  -46.1  -18.1  145.8   -6.2   178.3
 11 FEB  3  34:04:00:00     339    0.8      24   -0.3      254.0  -46.3  -18.1  145.8   -6.2   177.7
 11 FEB  3  34:05:00:00     338    1.1      24   -0.4      254.0  -46.4  -18.1  145.8   -6.2   177.2
 11 FEB  3  34:06:00:00     342    1.0      25    0.4      254.0  -46.5  -18.1  145.8   -6.2   176.6
 11 FEB  3  34:07:00:00     340    0.9      25    0.4      253.9  -46.6  -18.0  145.8   -6.2   176.1
 11 FEB  3  34:08:00:00     334    0.8      24    0.9      253.9  -46.8  -18.0  145.8   -6.2   175.5
 11 FEB  3  34:09:00:00     329    0.9      23    1.3      253.9  -46.9  -18.0  145.8   -6.2   175.0
 11 FEB  3  34:10:00:00     324    1.0      22    1.6      253.8  -47.0  -18.0  145.8   -6.2   174.4
 11 FEB  3  34:11:00:00     320    1.1      22    2.1      253.8  -47.2  -18.0  145.8   -6.2   173.9
 11 FEB  3  34:12:00:00     321    1.1      22    2.1      253.8  -47.3  -18.0  145.8   -6.2   173.3
 11 FEB  3  34:13:00:00     312    1.6      20    2.0      253.8  -47.4  -18.0  145.8   -6.2   172.8
 11 FEB  3  34:14:00:00     323    1.6      22    2.2      253.7  -47.5  -18.0  145.8   -6.2   172.2
 11 FEB  3  34:15:00:00     316    2.6      21    2.3      253.7  -47.7  -18.0  145.8   -6.2   171.7
 11 FEB  3  34:16:00:00     304    3.2      19    2.2      253.7  -47.8  -18.0  145.8   -6.2   171.1
 11 FEB  3  34:17:00:00     304    3.2      19    2.1      253.6  -47.9  -17.9  145.8   -6.2   170.6
 11 FEB  3  34:18:00:00     299    3.1      19    1.9      253.6  -48.1  -17.9  145.8   -6.2   170.0
 11 FEB  3  34:19:00:00     301    3.0      19    2.1      253.6  -48.2  -17.9  145.8   -6.2   169.5
 11 FEB  3  34:20:00:00     297    2.8      19    2.3      253.5  -48.3  -17.9  145.8   -6.2   168.9
 11 FEB  3  34:21:00:00     298    3.0      19    2.1      253.5  -48.4  -17.9  145.8   -6.3   168.4
 11 FEB  3  34:22:00:00     293    2.5      19    1.8      253.5  -48.6  -17.9  145.8   -6.3   167.8
 11 FEB  3  34:23:00:00     301    1.5      19    2.0      253.4  -48.7  -17.9  145.8   -6.3   167.3
 11 FEB  4  35:00:00:00     301    1.6      19    1.9      253.4  -48.8  -17.9  145.8   -6.3   166.7
 11 FEB  4  35:01:00:00     323    2.5      24    1.8      253.4  -48.9  -17.9  145.8   -6.3   166.2
 11 FEB  4  35:02:00:00     351    5.2      26    0.7      253.4  -49.1  -17.8  145.8   -6.3   165.7
 11 FEB  4  35:03:00:00     354    5.9      24   -0.2      253.3  -49.2  -17.8  145.9   -6.3   165.1
 11 FEB  4  35:04:00:00     357   10.7      29    1.3      253.3  -49.3  -17.8  145.9   -6.3   164.6
 11 FEB  4  35:05:00:00     361   14.5      29    2.6      253.3  -49.5  -17.8  145.9   -6.3   164.0
 11 FEB  4  35:06:00:00     356   13.6      25    1.6      253.2  -49.6  -17.8  145.9   -6.3   163.5
 11 FEB  4  35:07:00:00     368   20.7      25    4.2      253.2  -49.7  -17.8  145.9   -6.3   162.9
 11 FEB  4  35:08:00:00     368   19.8      25    4.0      253.2  -49.8  -17.8  145.9   -6.3   162.4
 11 FEB  4  35:09:00:00     354   11.4      25   -1.5      253.1  -50.0  -17.8  145.9   -6.3   161.8
 11 FEB  4  35:10:00:00     356    7.7      26   -5.1      253.1  -50.1  -17.8  145.9   -6.3   161.3
 11 FEB  4  35:11:00:00     362   10.8      27   -6.1      253.1  -50.2  -17.7  145.9   -6.3   160.7
 11 FEB  4  35:12:00:00     378   10.3      30   -5.0      253.0  -50.3  -17.7  145.9   -6.3   160.2
 11 FEB  4  35:13:00:00     392    8.9      33   -4.3      253.0  -50.5  -17.7  145.9   -6.3   159.6
 11 FEB  4  35:14:00:00     403   21.6      43   -8.1      253.0  -50.6  -17.7  145.9   -6.3   159.1
 11 FEB  4  35:15:00:00     396   24.7      43   -7.4      252.9  -50.7  -17.7  145.9   -6.3   158.5
 11 FEB  4  35:16:00:00     396   30.1      43   -6.8      252.9  -50.8  -17.7  145.9   -6.3   158.0
 11 FEB  4  35:17:00:00     386   21.4      40   -4.9      252.9  -51.0  -17.7  145.9   -6.3   157.4
 11 FEB  4  35:18:00:00     391   20.7      33   -4.7      252.8  -51.1  -17.7  145.9   -6.3   156.9
 11 FEB  4  35:19:00:00     432   17.2      33   -3.6      252.8  -51.2  -17.7  145.9   -6.3   156.3
 11 FEB  4  35:20:00:00     447   17.5      44    1.0      252.8  -51.3  -17.6  145.9   -6.3   155.8
 11 FEB  4  35:21:00:00     518   14.0      70    5.1      252.7  -51.5  -17.6  145.9   -6.3   155.2
 11 FEB  4  35:22:00:00      -1   -1.0      -1   99.0      252.7  -51.6  -17.6  145.9   -6.3   154.7
 11 FEB  4  35:23:00:00      -1   -1.0      -1   99.0      252.7  -51.7  -17.6  145.9   -6.3   154.1
 11 FEB  5  36:00:00:00      -1   -1.0      -1   99.0      252.6  -51.8  -17.6  145.9   -6.3   153.6
 11 FEB  5  36:01:00:00      -1   -1.0      -1   99.0      252.6  -52.0  -17.6  145.9   -6.3   153.0
 11 FEB  5  36:02:00:00      -1   -1.0      -1   99.0      252.5  -52.1  -17.6  145.9   -6.3   152.5
 11 FEB  5  36:03:00:00      -1   -1.0      -1   99.0      252.5  -52.2  -17.6  145.9   -6.3   151.9
 11 FEB  5  36:04:00:00      -1   -1.0      -1   99.0      252.5  -52.3  -17.5  145.9   -6.3   151.4
 11 FEB  5  36:05:00:00      -1   -1.0      -1   99.0      252.4  -52.5  -17.5  145.9   -6.3   150.8
 11 FEB  5  36:06:00:00     592    3.2      49    1.6      252.4  -52.6  -17.5  145.9   -6.3   150.3
 11 FEB  5  36:07:00:00     593    2.6      55   -0.1      252.4  -52.7  -17.5  145.9   -6.3   149.7
 11 FEB  5  36:08:00:00     579    3.1      47    1.5      252.3  -52.8  -17.5  145.9   -6.3   149.2
 11 FEB  5  36:09:00:00     574    3.3      45    1.9      252.3  -53.0  -17.5  145.9   -6.3   148.6
 11 FEB  5  36:10:00:00     576    3.8      47    1.4      252.3  -53.1  -17.5  145.9   -6.4   148.1
 11 FEB  5  36:11:00:00     573    3.1      44    1.0      252.2  -53.2  -17.5  145.9   -6.4   147.5
 11 FEB  5  36:12:00:00     573    2.1      50   -0.5      252.2  -53.3  -17.5  145.9   -6.4   147.0
 11 FEB  5  36:13:00:00     570    2.5      43    0.2      252.2  -53.5  -17.4  145.9   -6.4   146.4
 11 FEB  5  36:14:00:00     569    2.6      42   -0.1      252.1  -53.6  -17.4  145.9   -6.4   145.9
 11 FEB  5  36:15:00:00     568    2.9      41    0.3      252.1  -53.7  -17.4  145.9   -6.4   145.3
 11 FEB  5  36:16:00:00     568    2.6      43    1.0      252.0  -53.8  -17.4  145.9   -6.4   144.8
 11 FEB  5  36:17:00:00     565    2.5      40   -0.2      252.0  -54.0  -17.4  145.9   -6.4   144.2
 11 FEB  5  36:18:00:00     564    2.0      40   -0.9      252.0  -54.1  -17.4  145.9   -6.4   143.7
 11 FEB  5  36:19:00:00     566    1.8      42   -0.2      251.9  -54.2  -17.4  145.9   -6.4   143.1
 11 FEB  5  36:20:00:00     564    1.9      42   -0.7      251.9  -54.3  -17.4  145.9   -6.4   142.6
 11 FEB  5  36:21:00:00     563    1.8      45    0.2      251.9  -54.5  -17.3  145.9   -6.4   142.0
 11 FEB  5  36:22:00:00     560    2.1      45    1.4      251.8  -54.6  -17.3  145.9   -6.4   141.5
 11 FEB  5  36:23:00:00     544    2.0      49    0.7      251.8  -54.7  -17.3  145.9   -6.4   140.9
 11 FEB  6  37:00:00:00     553    1.8      48    1.1      251.7  -54.8  -17.3  145.9   -6.4   140.4
 11 FEB  6  37:01:00:00     547    1.9      48    0.4      251.7  -54.9  -17.3  145.9   -6.4   139.8
 11 FEB  6  37:02:00:00     537    1.8      49   -0.6      251.7  -55.1  -17.3  145.9   -6.4   139.3
 11 FEB  6  37:03:00:00     543    1.6      48   -1.0      251.6  -55.2  -17.3  145.9   -6.4   138.7
 11 FEB  6  37:04:00:00     543    1.7      48   -1.0      251.6  -55.3  -17.3  145.9   -6.4   138.2
 11 FEB  6  37:05:00:00     529    1.9      45   -1.9      251.6  -55.4  -17.2  145.9   -6.4   137.6
 11 FEB  6  37:06:00:00     528    1.8      45   -2.8      251.5  -55.6  -17.2  145.9   -6.4   137.1
 11 FEB  6  37:07:00:00     507    2.2      43   -2.9      251.5  -55.7  -17.2  145.9   -6.4   136.5
 11 FEB  6  37:08:00:00     500    2.3      42   -2.9      251.4  -55.8  -17.2  145.9   -6.4   136.0
 11 FEB  6  37:09:00:00     517    1.8      45   -0.7      251.4  -55.9  -17.2  145.9   -6.4   135.4
 11 FEB  6  37:10:00:00     517    2.2      45   -3.5      251.4  -56.0  -17.2  145.9   -6.4   134.9
 11 FEB  6  37:11:00:00     497    2.5      41   -2.7      251.3  -56.2  -17.2  145.9   -6.4   134.3
 11 FEB  6  37:12:00:00     496    2.3      42   -2.1      251.3  -56.3  -17.2  145.9   -6.4   133.8
 11 FEB  6  37:13:00:00     510    2.2      45   -1.3      251.2  -56.4  -17.1  145.9   -6.4   133.2
 11 FEB  6  37:14:00:00     498    2.6      42   -1.9      251.2  -56.5  -17.1  145.9   -6.4   132.7
 11 FEB  6  37:15:00:00     532    1.6      47   -2.1      251.2  -56.7  -17.1  145.9   -6.4   132.1
 11 FEB  6  37:16:00:00     527    1.4      47   -1.6      251.1  -56.8  -17.1  145.9   -6.4   131.6
 11 FEB  6  37:17:00:00     509    1.8      44   -0.9      251.1  -56.9  -17.1  145.9   -6.4   131.0
 11 FEB  6  37:18:00:00     513    1.8      45    0.1      251.0  -57.0  -17.1  145.9   -6.4   130.5
 11 FEB  6  37:19:00:00     485    2.3      40   -1.2      251.0  -57.1  -17.1  145.9   -6.4   129.9
 11 FEB  6  37:20:00:00     488    2.7      42   -0.8      251.0  -57.3  -17.1  145.9   -6.4   129.4
 11 FEB  6  37:21:00:00     479    2.9      37    0.1      250.9  -57.4  -17.0  145.9   -6.4   128.8
 11 FEB  6  37:22:00:00     479    2.5      36    0.1      250.9  -57.5  -17.0  145.9   -6.4   128.3
 11 FEB  6  37:23:00:00     475    2.4      36    1.2      250.8  -57.6  -17.0  145.9   -6.4   127.7
 11 FEB  7  38:00:00:00     509    1.9      43    0.3      250.8  -57.7  -17.0  145.9   -6.4   127.2
 11 FEB  7  38:01:00:00     470    2.8      33    1.8      250.8  -57.9  -17.0  145.9   -6.5   126.6
 11 FEB  7  38:02:00:00     465    2.0      34    0.3      250.7  -58.0  -17.0  145.9   -6.5   126.1
 11 FEB  7  38:03:00:00     467    1.6      34    0.0      250.7  -58.1  -17.0  145.9   -6.5   125.5
 11 FEB  7  38:04:00:00     461    1.1      41   -0.3      250.6  -58.2  -17.0  145.9   -6.5   125.0
 11 FEB  7  38:05:00:00     460    1.2      43   -0.5      250.6  -58.3  -16.9  145.9   -6.5   124.4
 11 FEB  7  38:06:00:00     452    1.2      43   -0.1      250.6  -58.5  -16.9  145.9   -6.5   123.9
 11 FEB  7  38:07:00:00     447    1.3      44    0.3      250.5  -58.6  -16.9  145.9   -6.5   123.3
 11 FEB  7  38:08:00:00     443    1.4      42    0.8      250.5  -58.7  -16.9  145.9   -6.5   122.8
 11 FEB  7  38:09:00:00     443    1.3      43   -0.5      250.4  -58.8  -16.9  145.9   -6.5   122.2
 11 FEB  7  38:10:00:00     450    1.3      38    0.1      250.4  -58.9  -16.9  145.9   -6.5   121.7
 11 FEB  7  38:11:00:00     432    2.0      40   -0.5      250.4  -59.1  -16.9  145.9   -6.5   121.1
 11 FEB  7  38:12:00:00     430    2.0      38    0.9      250.3  -59.2  -16.9  145.9   -6.5   120.6
 11 FEB  7  38:13:00:00     450    1.8      34    0.5      250.3  -59.3  -16.8  145.9   -6.5   120.0
 11 FEB  7  38:14:00:00     448    1.3      36    0.2      250.2  -59.4  -16.8  146.0   -6.5   119.5
 11 FEB  7  38:15:00:00     444    1.2      36   -0.8      250.2  -59.5  -16.8  146.0   -6.5   118.9
 11 FEB  7  38:16:00:00     435    1.3      38    0.8      250.1  -59.7  -16.8  146.0   -6.5   118.4
 11 FEB  7  38:17:00:00     445    1.7      35   -0.6      250.1  -59.8  -16.8  146.0   -6.5   117.8
 11 FEB  7  38:18:00:00     451    1.5      38   -0.7      250.1  -59.9  -16.8  146.0   -6.5   117.3
 11 FEB  7  38:19:00:00     444    1.3      41    0.7      250.0  -60.0  -16.8  146.0   -6.5   116.7
 11 FEB  7  38:20:00:00     445    1.3      40   -1.4      250.0  -60.1  -16.8  146.0   -6.5   116.2
 11 FEB  7  38:21:00:00     443    1.2      40   -0.5      249.9  -60.3  -16.7  146.0   -6.5   115.7
 11 FEB  7  38:22:00:00     421    1.8      37    0.1      249.9  -60.4  -16.7  146.0   -6.5   115.1
 11 FEB  7  38:23:00:00     424    1.8      38   -1.8      249.9  -60.5  -16.7  146.0   -6.5   114.6
 11 FEB  8  39:00:00:00     418    2.2      38    0.1      249.8  -60.6  -16.7  146.0   -6.5   114.0
 11 FEB  8  39:01:00:00     427    2.2      38   -1.3      249.8  -60.7  -16.7  146.0   -6.5   113.5
 11 FEB  8  39:02:00:00     430    2.3      36   -0.9      249.7  -60.8  -16.7  146.0   -6.5   112.9
 11 FEB  8  39:03:00:00     430    2.1      37   -0.9      249.7  -61.0  -16.7  146.0   -6.5   112.4
 11 FEB  8  39:04:00:00     424    2.2      37   -0.3      249.6  -61.1  -16.6  146.0   -6.5   111.8
 11 FEB  8  39:05:00:00     404    3.0      34   -0.7      249.6  -61.2  -16.6  146.0   -6.5   111.3
 11 FEB  8  39:06:00:00     415    3.3      36   -0.1      249.6  -61.3  -16.6  146.0   -6.5   110.7
 11 FEB  8  39:07:00:00     419    3.0      37   -0.4      249.5  -61.4  -16.6  146.0   -6.5   110.2
 11 FEB  8  39:08:00:00     403    3.5      33   -0.5      249.5  -61.6  -16.6  146.0   -6.5   109.6
 11 FEB  8  39:09:00:00     401    3.6      32    0.3      249.4  -61.7  -16.6  146.0   -6.5   109.1
 11 FEB  8  39:10:00:00     392    4.1      29    1.0      249.4  -61.8  -16.6  146.0   -6.5   108.5
 11 FEB  8  39:11:00:00     395    3.1      30    0.4      249.3  -61.9  -16.5  146.0   -6.5   108.0
 11 FEB  8  39:12:00:00     392    2.8      29   -0.5      249.3  -62.0  -16.5  146.0   -6.5   107.4
 11 FEB  8  39:13:00:00     396    2.8      30   -0.2      249.2  -62.1  -16.5  146.0   -6.5   106.9
 11 FEB  8  39:14:00:00     391    3.3      29   -0.5      249.2  -62.3  -16.5  146.0   -6.5   106.3
 11 FEB  8  39:15:00:00     392    3.7      31   -1.8      249.2  -62.4  -16.5  146.0   -6.5   105.8
 11 FEB  8  39:16:00:00     384    4.1      30   -1.7      249.1  -62.5  -16.5  146.0   -6.5   105.2
 11 FEB  8  39:17:00:00     394    3.1      30   -1.0      249.1  -62.6  -16.5  146.0   -6.5   104.7
 11 FEB  8  39:18:00:00     386    3.7      28   -1.2      249.0  -62.7  -16.5  146.0   -6.6   104.1
 11 FEB  8  39:19:00:00     385    4.9      28   -3.2      249.0  -62.8  -16.4  146.0   -6.6   103.6
 11 FEB  8  39:20:00:00     382    3.9      28   -2.1      248.9  -63.0  -16.4  146.0   -6.6   103.0
 11 FEB  8  39:21:00:00     385    3.3      27   -1.3      248.9  -63.1  -16.4  146.0   -6.6   102.5
 11 FEB  8  39:22:00:00     377    3.8      26   -1.4      248.8  -63.2  -16.4  146.0   -6.6   101.9
 11 FEB  8  39:23:00:00     373    3.9      25   -1.7      248.8  -63.3  -16.4  146.0   -6.6   101.4
 11 FEB  9  40:00:00:00     363    4.1      24   -1.3      248.8  -63.4  -16.4  146.0   -6.6   100.8
 11 FEB  9  40:01:00:00     357    3.9      23   -0.7      248.7  -63.5  -16.4  146.0   -6.6   100.3
 11 FEB  9  40:02:00:00     358    3.6      25   -0.8      248.7  -63.7  -16.3  146.0   -6.6    99.7
 11 FEB  9  40:03:00:00     357    3.0      27   -1.8      248.6  -63.8  -16.3  146.0   -6.6    99.2
 11 FEB  9  40:04:00:00     352    2.2      26   -0.3      248.6  -63.9  -16.3  146.0   -6.6    98.6
 11 FEB  9  40:05:00:00     352    2.1      27   -0.3      248.5  -64.0  -16.3  146.0   -6.6    98.1
 11 FEB  9  40:06:00:00     351    1.9      29   -0.9      248.5  -64.1  -16.3  146.0   -6.6    97.5
 11 FEB  9  40:07:00:00     351    1.9      29   -2.2      248.4  -64.2  -16.3  146.0   -6.6    97.0
 11 FEB  9  40:08:00:00     350    2.2      27   -0.5      248.4  -64.4  -16.3  146.0   -6.6    96.4
 11 FEB  9  40:09:00:00     350    2.0      27   -0.1      248.3  -64.5  -16.2  146.0   -6.6    95.9
 11 FEB  9  40:10:00:00     353    2.2      27    0.5      248.3  -64.6  -16.2  146.0   -6.6    95.3
 11 FEB  9  40:11:00:00     351    2.2      28    0.6      248.3  -64.7  -16.2  146.0   -6.6    94.8
 11 FEB  9  40:12:00:00     341    2.3      28    1.1      248.2  -64.8  -16.2  146.0   -6.6    94.2
 11 FEB  9  40:13:00:00     328    2.7      25    1.4      248.2  -64.9  -16.2  146.0   -6.6    93.7
 11 FEB  9  40:14:00:00     321    3.1      24    2.2      248.1  -65.0  -16.2  146.0   -6.6    93.1
 11 FEB  9  40:15:00:00     318    2.7      23    2.5      248.1  -65.2  -16.2  146.0   -6.6    92.6
 11 FEB  9  40:16:00:00     316    2.4      23    2.9      248.0  -65.3  -16.1  146.0   -6.6    92.0
 11 FEB  9  40:17:00:00     302    2.1      20    2.1      248.0  -65.4  -16.1  146.0   -6.6    91.5
 11 FEB  9  40:18:00:00     308    2.3      21    2.1      247.9  -65.5  -16.1  146.0   -6.6    90.9
 11 FEB  9  40:19:00:00     308    2.2      20    2.5      247.9  -65.6  -16.1  146.0   -6.6    90.4
 11 FEB  9  40:20:00:00     311    2.3      21    2.5      247.8  -65.7  -16.1  146.0   -6.6    89.8
 11 FEB  9  40:21:00:00     314    1.9      21    2.8      247.8  -65.8  -16.1  146.0   -6.6    89.3
 11 FEB  9  40:22:00:00     310    1.8      20    2.9      247.7  -66.0  -16.1  146.0   -6.6    88.7
 11 FEB  9  40:23:00:00     318    2.3      22    3.0      247.7  -66.1  -16.0  146.0   -6.6    88.2
 11 FEB 10  41:00:00:00     355    3.0      28    2.7      247.6  -66.2  -16.0  146.0   -6.6    87.6
 11 FEB 10  41:01:00:00     356    4.6      26    3.5      247.6  -66.3  -16.0  146.0   -6.6    87.1
 11 FEB 10  41:02:00:00     354    5.4      23    3.3      247.6  -66.4  -16.0  146.0   -6.6    86.5
 11 FEB 10  41:03:00:00     357    8.8      21    3.9      247.5  -66.5  -16.0  146.0   -6.6    86.0
 11 FEB 10  41:04:00:00     353    7.5      19    2.0      247.5  -66.6  -16.0  146.0   -6.6    85.4
 11 FEB 10  41:05:00:00     348    6.7      15    1.5      247.4  -66.8  -16.0  146.0   -6.6    84.9
 11 FEB 10  41:06:00:00     367   19.1      24    5.9      247.4  -66.9  -15.9  146.0   -6.6    84.3
 11 FEB 10  41:07:00:00     364   15.0      29    6.1      247.3  -67.0  -15.9  146.0   -6.6    83.8
 11 FEB 10  41:08:00:00     360   14.0      28    5.4      247.3  -67.1  -15.9  146.0   -6.6    83.2
 11 FEB 10  41:09:00:00     366   10.9      29    5.3      247.2  -67.2  -15.9  146.0   -6.6    82.7
 11 FEB 10  41:10:00:00     362   11.2      28    5.5      247.2  -67.3  -15.9  146.0   -6.6    82.1
 11 FEB 10  41:11:00:00     368    7.8      33    5.7      247.1  -67.4  -15.9  146.0   -6.6    81.6
 11 FEB 10  41:12:00:00     365    6.9      34    4.0      247.1  -67.5  -15.9  146.0   -6.6    81.0
 11 FEB 10  41:13:00:00     362    8.0      35    3.6      247.0  -67.7  -15.8  146.0   -6.6    80.5
 11 FEB 10  41:14:00:00     373    7.0      39    1.3      247.0  -67.8  -15.8  146.0   -6.6    79.9
 11 FEB 10  41:15:00:00     380    6.0      39    0.8      246.9  -67.9  -15.8  146.0   -6.7    79.4
 11 FEB 10  41:16:00:00     379    3.8      37   -1.4      246.9  -68.0  -15.8  146.0   -6.7    78.8
 11 FEB 10  41:17:00:00     381    3.6      36   -1.0      246.8  -68.1  -15.8  146.1   -6.7    78.3
 11 FEB 10  41:18:00:00     378    3.5      34   -1.5      246.8  -68.2  -15.8  146.1   -6.7    77.7
 11 FEB 10  41:19:00:00     367    4.0      37   -4.6      246.7  -68.3  -15.8  146.1   -6.7    77.2
 11 FEB 10  41:20:00:00     358    3.6      34   -2.4      246.7  -68.4  -15.7  146.1   -6.7    76.6
 11 FEB 10  41:21:00:00     355    4.1      33   -4.2      246.6  -68.6  -15.7  146.1   -6.7    76.1
 11 FEB 10  41:22:00:00     350    3.5      31   -2.4      246.6  -68.7  -15.7  146.1   -6.7    75.5
 11 FEB 10  41:23:00:00     349    3.5      30   -0.6      246.5  -68.8  -15.7  146.1   -6.7    75.0
 11 FEB 11  42:00:00:00     342    3.4      27   -0.3      246.5  -68.9  -15.7  146.1   -6.7    74.4
 11 FEB 11  42:01:00:00     343    3.9      26    0.8      246.5  -69.0  -15.7  146.1   -6.7    73.9
 11 FEB 11  42:02:00:00     334    3.5      23   -2.5      246.4  -69.1  -15.6  146.1   -6.7    73.3
 11 FEB 11  42:03:00:00     332    2.7      22   -1.9      246.4  -69.2  -15.6  146.1   -6.7    72.8
 11 FEB 11  42:04:00:00     331    3.0      22   -3.0      246.3  -69.3  -15.6  146.1   -6.7    72.2
 11 FEB 11  42:05:00:00     338    4.2      22   -2.5      246.3  -69.5  -15.6  146.1   -6.7    71.7
 11 FEB 11  42:06:00:00     343    4.6      22   -2.7      246.2  -69.6  -15.6  146.1   -6.7    71.1
 11 FEB 11  42:07:00:00     340    4.6      23   -3.4      246.2  -69.7  -15.6  146.1   -6.7    70.6
 11 FEB 11  42:08:00:00     337    4.2      23   -3.2      246.1  -69.8  -15.6  146.1   -6.7    70.0
 11 FEB 11  42:09:00:00     344    6.8      23   -3.5      246.1  -69.9  -15.5  146.1   -6.7    69.5
 11 FEB 11  42:10:00:00     343    6.1      22   -2.2      246.0  -70.0  -15.5  146.1   -6.7    68.9
 11 FEB 11  42:11:00:00     345    6.9      22   -2.1      246.0  -70.1  -15.5  146.1   -6.7    68.4
 11 FEB 11  42:12:00:00     343    5.4      21   -0.7      245.9  -70.2  -15.5  146.1   -6.7    67.8
 11 FEB 11  42:13:00:00     346    6.6      20   -1.2      245.9  -70.3  -15.5  146.1   -6.7    67.3
 11 FEB 11  42:14:00:00     348    6.8      20   -1.1      245.8  -70.5  -15.5  146.1   -6.7    66.8
 11 FEB 11  42:15:00:00     351    6.8      20    1.1      245.8  -70.6  -15.4  146.1   -6.7    66.2
 11 FEB 11  42:16:00:00     347    5.9      20   -0.2      245.7  -70.7  -15.4  146.1   -6.7    65.7
 11 FEB 11  42:17:00:00     353    7.7      21   -1.1      245.7  -70.8  -15.4  146.1   -6.7    65.1
 11 FEB 11  42:18:00:00     357    7.5      22    1.4      245.6  -70.9  -15.4  146.1   -6.7    64.6
 11 FEB 11  42:19:00:00     394    7.4      32    3.0      245.6  -71.0  -15.4  146.1   -6.7    64.0
 11 FEB 11  42:20:00:00     404    6.8      38    1.1      245.5  -71.1  -15.4  146.1   -6.7    63.5
 11 FEB 11  42:21:00:00     396    6.5      36    0.3      245.5  -71.2  -15.4  146.1   -6.7    62.9
 11 FEB 11  42:22:00:00     382    5.6      30   -1.0      245.4  -71.3  -15.3  146.1   -6.7    62.4
 11 FEB 11  42:23:00:00     393    5.2      36   -0.9      245.4  -71.4  -15.3  146.1   -6.7    61.8
 11 FEB 12  43:00:00:00     407    5.1      44   -0.8      245.3  -71.6  -15.3  146.1   -6.7    61.3
 11 FEB 12  43:01:00:00     406    5.1      44   -0.1      245.3  -71.7  -15.3  146.1   -6.7    60.7
 11 FEB 12  43:02:00:00     405    5.4      43    1.0      245.2  -71.8  -15.3  146.1   -6.7    60.2
 11 FEB 12  43:03:00:00     409    5.1      44    1.1      245.2  -71.9  -15.3  146.1   -6.7    59.6
 11 FEB 12  43:04:00:00     405    5.0      43    0.8      245.1  -72.0  -15.2  146.1   -6.7    59.1
 11 FEB 12  43:05:00:00     399    5.2      40    0.6      245.1  -72.1  -15.2  146.1   -6.7    58.5
 11 FEB 12  43:06:00:00     400    5.2      39    0.9      245.0  -72.2  -15.2  146.1   -6.7    58.0
 11 FEB 12  43:07:00:00     401    4.9      38    1.5      245.0  -72.3  -15.2  146.1   -6.7    57.4
 11 FEB 12  43:08:00:00     380    4.9      31    0.3      244.9  -72.4  -15.2  146.1   -6.7    56.9
 11 FEB 12  43:09:00:00     378    5.1      31    0.0      244.9  -72.5  -15.2  146.1   -6.7    56.3
 11 FEB 12  43:10:00:00     373    5.1      32    0.7      244.8  -72.6  -15.2  146.1   -6.7    55.8
 11 FEB 12  43:11:00:00     365    5.5      31    0.7      244.8  -72.7  -15.1  146.1   -6.7    55.2
 11 FEB 12  43:12:00:00     360    5.2      30    0.7      244.7  -72.9  -15.1  146.1   -6.7    54.7
 11 FEB 12  43:13:00:00     358    4.9      28    0.5      244.7  -73.0  -15.1  146.1   -6.7    54.1
 11 FEB 12  43:14:00:00     357    4.4      26    0.1      244.6  -73.1  -15.1  146.1   -6.7    53.6
 11 FEB 12  43:15:00:00     357    3.9      26   -0.6      244.6  -73.2  -15.1  146.1   -6.8    53.0
 11 FEB 12  43:16:00:00     358    3.6      25   -0.4      244.5  -73.3  -15.1  146.1   -6.8    52.5
 11 FEB 12  43:17:00:00     357    3.4      24   -0.1      244.5  -73.4  -15.0  146.1   -6.8    51.9
 11 FEB 12  43:18:00:00     354    3.2      24    0.3      244.4  -73.5  -15.0  146.1   -6.8    51.4
 11 FEB 12  43:19:00:00     353    2.9      23    0.3      244.4  -73.6  -15.0  146.1   -6.8    50.8
 11 FEB 12  43:20:00:00     351    2.7      24    0.1      244.3  -73.7  -15.0  146.1   -6.8    50.3
 11 FEB 12  43:21:00:00     350    2.5      24   -0.3      244.3  -73.8  -15.0  146.1   -6.8    49.7
 11 FEB 12  43:22:00:00     351    2.6      24   -0.5      244.2  -73.9  -15.0  146.1   -6.8    49.2
 11 FEB 12  43:23:00:00     353    2.9      24    0.2      244.2  -74.0  -14.9  146.1   -6.8    48.6
 11 FEB 13  44:00:00:00     355    3.4      24    0.6      244.1  -74.1  -14.9  146.1   -6.8    48.1
 11 FEB 13  44:01:00:00     356    4.9      22    1.5      244.1  -74.3  -14.9  146.1   -6.8    47.5
 11 FEB 13  44:02:00:00     354    3.7      24    0.6      244.0  -74.4  -14.9  146.1   -6.8    47.0
 11 FEB 13  44:03:00:00     354    2.5      28    0.1      244.0  -74.5  -14.9  146.1   -6.8    46.4
 11 FEB 13  44:04:00:00     349    2.3      29   -0.4      243.9  -74.6  -14.9  146.1   -6.8    45.9
 11 FEB 13  44:05:00:00     347    2.3      28   -0.8      243.9  -74.7  -14.8  146.1   -6.8    45.3
 11 FEB 13  44:06:00:00     341    2.4      27   -0.7      243.8  -74.8  -14.8  146.1   -6.8    44.8
 11 FEB 13  44:07:00:00     336    2.4      27   -0.3      243.8  -74.9  -14.8  146.1   -6.8    44.2
 11 FEB 13  44:08:00:00     335    2.5      26   -0.1      243.7  -75.0  -14.8  146.1   -6.8    43.7
 11 FEB 13  44:09:00:00     319    3.1      23   -0.1      243.7  -75.1  -14.8  146.1   -6.8    43.1
 11 FEB 13  44:10:00:00     336    3.1      25   -1.5      243.6  -75.2  -14.8  146.1   -6.8    42.6
 11 FEB 13  44:11:00:00     343    2.9      25   -0.8      243.6  -75.3  -14.7  146.1   -6.8    42.0
 11 FEB 13  44:12:00:00     345    3.1      25   -0.4      243.5  -75.4  -14.7  146.1   -6.8    41.5
 11 FEB 13  44:13:00:00     341    3.4      24    0.2      243.4  -75.5  -14.7  146.1   -6.8    40.9
 11 FEB 13  44:14:00:00     336    3.1      24    0.3      243.4  -75.6  -14.7  146.1   -6.8    40.4
 11 FEB 13  44:15:00:00     329    2.9      23    0.6      243.3  -75.7  -14.7  146.2   -6.8    39.8
 11 FEB 13  44:16:00:00     319    3.0      20    0.4      243.3  -75.8  -14.7  146.2   -6.8    39.3
 11 FEB 13  44:17:00:00     314    3.6      19    0.9      243.2  -76.0  -14.7  146.2   -6.8    38.7
 11 FEB 13  44:18:00:00     316    4.5      19    1.6      243.2  -76.1  -14.6  146.2   -6.8    38.2
 11 FEB 13  44:19:00:00     314    5.2      19    1.9      243.1  -76.2  -14.6  146.2   -6.8    37.6
 11 FEB 13  44:20:00:00     308    5.9      19    1.8      243.1  -76.3  -14.6  146.2   -6.8    37.1
 11 FEB 13  44:21:00:00     297    5.5      19    0.9      243.0  -76.4  -14.6  146.2   -6.8    36.5
 11 FEB 13  44:22:00:00     291    5.3      18    0.1      243.0  -76.5  -14.6  146.2   -6.8    36.0
 11 FEB 13  44:23:00:00     290    5.7      18    0.6      242.9  -76.6  -14.6  146.2   -6.8    35.4
 11 FEB 14  45:00:00:00     287    5.9      18    0.3      242.9  -76.7  -14.5  146.2   -6.8    34.9
 11 FEB 14  45:01:00:00     285    5.2      17    0.4      242.8  -76.8  -14.5  146.2   -6.8    34.3
 11 FEB 14  45:02:00:00     284    5.6      17    0.3      242.8  -76.9  -14.5  146.2   -6.8    33.8
 11 FEB 14  45:03:00:00     282    5.2      17    0.2      242.7  -77.0  -14.5  146.2   -6.8    33.2
 11 FEB 14  45:04:00:00     288    5.4      18   -0.5      242.7  -77.1  -14.5  146.2   -6.8    32.7
 11 FEB 14  45:05:00:00     296    3.9      19    0.2      242.6  -77.2  -14.4  146.2   -6.8    32.1
 11 FEB 14  45:06:00:00     308    5.1      20    3.1      242.6  -77.3  -14.4  146.2   -6.8    31.6
 11 FEB 14  45:07:00:00     311    5.2      21    2.7      242.5  -77.4  -14.4  146.2   -6.8    31.0
 11 FEB 14  45:08:00:00     309    4.9      20    1.9      242.5  -77.5  -14.4  146.2   -6.8    30.5
 11 FEB 14  45:09:00:00     308    5.0      20    1.5      242.4  -77.6  -14.4  146.2   -6.8    29.9
 11 FEB 14  45:10:00:00     307    4.8      20   -0.2      242.4  -77.7  -14.4  146.2   -6.8    29.4
 11 FEB 14  45:11:00:00     304    4.8      19   -0.7      242.3  -77.8  -14.3  146.2   -6.8    28.8
 11 FEB 14  45:12:00:00     301    4.4      19   -0.4      242.3  -77.9  -14.3  146.2   -6.8    28.3
 11 FEB 14  45:13:00:00     300    4.6      19   -0.3      242.2  -78.0  -14.3  146.2   -6.8    27.7
 11 FEB 14  45:14:00:00     300    4.4      19    0.4      242.2  -78.1  -14.3  146.2   -6.8    27.2
 11 FEB 14  45:15:00:00     382   19.1      34    3.4      242.1  -78.2  -14.3  146.2   -6.8    26.6
 11 FEB 14  45:16:00:00     374   27.7      26    2.6      242.1  -78.3  -14.3  146.2   -6.8    26.1
 11 FEB 14  45:17:00:00     369   29.3      23   -0.5      242.0  -78.4  -14.2  146.2   -6.8    25.5
 11 FEB 14  45:18:00:00     364   34.2      23    0.1      242.0  -78.5  -14.2  146.2   -6.8    25.0
 11 FEB 14  45:19:00:00     354   20.8      22    1.6      241.9  -78.6  -14.2  146.2   -6.8    24.4
 11 FEB 14  45:20:00:00     356   38.2      24    4.8      241.9  -78.7  -14.2  146.2   -6.9    23.9
 11 FEB 14  45:21:00:00     384   18.6      44    4.6      241.8  -78.8  -14.2  146.2   -6.9    23.3
 11 FEB 14  45:22:00:00     400   10.1      48    4.4      241.8  -79.0  -14.2  146.2   -6.9    22.8
 11 FEB 14  45:23:00:00     387   10.8      44    5.4      241.7  -79.1  -14.1  146.2   -6.9    22.2
 11 FEB 15  46:00:00:00     377   15.5      41    6.7      241.6  -79.2  -14.1  146.2   -6.9    21.7
 11 FEB 15  46:01:00:00     353   14.0      36    5.3      241.6  -79.3  -14.1  146.2   -6.9    21.1
 11 FEB 15  46:02:00:00     392   17.9      45    0.1      241.5  -79.4  -14.1  146.2   -6.9    20.6
 11 FEB 15  46:03:00:00     400   17.0      47   -3.3      241.5  -79.5  -14.1  146.2   -6.9    20.0
 11 FEB 15  46:04:00:00     402   15.2      48   -3.3      241.4  -79.6  -14.1  146.2   -6.9    19.5
 11 FEB 15  46:05:00:00     402   10.4      46   -3.4      241.4  -79.7  -14.0  146.2   -6.9    19.0
 11 FEB 15  46:06:00:00     419    7.1      49   -3.5      241.3  -79.8  -14.0  146.2   -6.9    18.4
 11 FEB 15  46:07:00:00     424    7.0      42   -4.9      241.3  -79.9  -14.0  146.2   -6.9    17.9
 11 FEB 15  46:08:00:00     452    7.9      51   -4.6      241.2  -80.0  -14.0  146.2   -6.9    17.3
 11 FEB 15  46:09:00:00     446    7.3      47   -4.9      241.2  -80.1  -14.0  146.2   -6.9    16.8
 11 FEB 15  46:10:00:00     430    7.6      45   -4.8      241.1  -80.2  -13.9  146.2   -6.9    16.2
 11 FEB 15  46:11:00:00     455    8.3      48   -6.1      241.1  -80.3  -13.9  146.2   -6.9    15.7
 11 FEB 15  46:12:00:00     437    8.0      45   -6.1      241.0  -80.4  -13.9  146.2   -6.9    15.1
 11 FEB 15  46:13:00:00     429    7.0      44   -6.1      241.0  -80.5  -13.9  146.2   -6.9    14.6
 11 FEB 15  46:14:00:00     426    6.7      42   -6.8      240.9  -80.6  -13.9  146.2   -6.9    14.0
 11 FEB 15  46:15:00:00     417    4.5      41   -5.3      240.9  -80.7  -13.9  146.2   -6.9    13.5
 11 FEB 15  46:16:00:00     405    4.6      35   -5.4      240.8  -80.8  -13.8  146.2   -6.9    12.9
 11 FEB 15  46:17:00:00     415    4.5      36   -5.4      240.8  -80.9  -13.8  146.2   -6.9    12.4
 11 FEB 15  46:18:00:00     420    3.4      37   -4.1      240.7  -81.0  -13.8  146.2   -6.9    11.8
 11 FEB 15  46:19:00:00     442    1.7      39   -2.4      240.7  -81.1  -13.8  146.2   -6.9    11.3
 11 FEB 15  46:20:00:00     444    1.9      40   -2.2      240.6  -81.2  -13.8  146.2   -6.9    10.7
 11 FEB 15  46:21:00:00     441    2.7      38   -2.5      240.6  -81.3  -13.8  146.2   -6.9    10.2
 11 FEB 15  46:22:00:00     453    2.6      36   -2.4      240.5  -81.4  -13.7  146.2   -6.9     9.6
 11 FEB 15  46:23:00:00     459    3.3      31   -3.0      240.5  -81.5  -13.7  146.2   -6.9     9.1
 11 FEB 16  47:00:00:00     454    2.8      32   -2.0      240.4  -81.6  -13.7  146.2   -6.9     8.5
 11 FEB 16  47:01:00:00     440    2.1      40   -2.1      240.4  -81.6  -13.7  146.2   -6.9     8.0
 11 FEB 16  47:02:00:00     436    2.2      39   -2.1      240.3  -81.7  -13.7  146.2   -6.9     7.4
 11 FEB 16  47:03:00:00     441    1.9      39   -1.2      240.3  -81.8  -13.6  146.2   -6.9     6.9
 11 FEB 16  47:04:00:00     436    2.0      41   -0.9      240.2  -81.9  -13.6  146.2   -6.9     6.3
 11 FEB 16  47:05:00:00      -1   -1.0      -1   99.0      240.2  -82.0  -13.6  146.2   -6.9     5.8
 11 FEB 16  47:06:00:00      -1   -1.0      -1   99.0      240.1  -82.1  -13.6  146.2   -6.9     5.2
 11 FEB 16  47:07:00:00      -1   -1.0      -1   99.0      240.1  -82.2  -13.6  146.2   -6.9     4.7
 11 FEB 16  47:08:00:00     424    2.2      37    0.1      240.0  -82.3  -13.6  146.2   -6.9     4.1
 11 FEB 16  47:09:00:00     412    2.2      35    0.4      240.0  -82.4  -13.5  146.3   -6.9     3.6
 11 FEB 16  47:10:00:00     433    1.5      39   -0.6      239.9  -82.5  -13.5  146.3   -6.9     3.0
 11 FEB 16  47:11:00:00     419    1.3      36    0.4      239.9  -82.6  -13.5  146.3   -6.9     2.5
 11 FEB 16  47:12:00:00     385    2.0      28    1.2      239.8  -82.7  -13.5  146.3   -6.9     1.9
 11 FEB 16  47:13:00:00     381    2.1      26    1.4      239.7  -82.8  -13.5  146.3   -6.9     1.4
 11 FEB 16  47:14:00:00     373    2.8      24    1.5      239.7  -82.9  -13.4  146.3   -6.9     0.8
 11 FEB 16  47:15:00:00     408    1.4      34    0.6      239.6  -83.0  -13.4  146.3   -6.9     0.3
 11 FEB 16  47:16:00:00     375    2.7      25    1.2      239.6  -83.1  -13.4  146.3   -6.9   359.7